sensor_id;sensor_type;location;lat;lon;timestamp;pressure;altitude;pressure_sealevel;temperature;humidity
45040;BME280;30778;53.574;7.770;2023-06-26T00:00:01;101247.75;;;19.92;44.80
45040;BME280;30778;53.574;7.770;2023-06-26T00:02:33;101246.19;;;19.90;44.97
45040;BME280;30778;53.574;7.770;2023-06-26T00:04:58;101242.06;;;19.86;45.04
45040;BME280;30778;53.574;7.770;2023-06-26T00:07:29;101242.31;;;19.83;44.92
45040;BME280;30778;53.574;7.770;2023-06-26T00:09:58;101241.84;;;19.89;45.13
45040;BME280;30778;53.574;7.770;2023-06-26T00:12:24;101242.97;;;19.74;45.22
45040;BME280;30778;53.574;7.770;2023-06-26T00:14:50;101228.25;;;19.69;45.41
45040;BME280;30778;53.574;7.770;2023-06-26T00:17:17;101223.06;;;19.68;45.45
45040;BME280;30778;53.574;7.770;2023-06-26T00:19:43;101229.97;;;19.70;45.66
45040;BME280;30778;53.574;7.770;2023-06-26T00:22:08;101230.81;;;19.71;45.50
45040;BME280;30778;53.574;7.770;2023-06-26T00:24:36;101229.66;;;19.62;45.62
45040;BME280;30778;53.574;7.770;2023-06-26T00:27:03;101232.41;;;19.61;45.61
45040;BME280;30778;53.574;7.770;2023-06-26T00:29:32;101227.44;;;19.56;45.79
45040;BME280;30778;53.574;7.770;2023-06-26T00:31:57;101216.56;;;19.48;45.87
45040;BME280;30778;53.574;7.770;2023-06-26T00:34:25;101214.94;;;19.45;46.33
45040;BME280;30778;53.574;7.770;2023-06-26T00:36:51;101216.00;;;19.43;46.16
45040;BME280;30778;53.574;7.770;2023-06-26T00:39:18;101205.22;;;19.46;46.30
45040;BME280;30778;53.574;7.770;2023-06-26T00:41:44;101205.41;;;19.43;46.30
45040;BME280;30778;53.574;7.770;2023-06-26T00:44:10;101203.94;;;19.39;45.88
45040;BME280;30778;53.574;7.770;2023-06-26T00:46:35;101200.31;;;19.53;45.99
45040;BME280;30778;53.574;7.770;2023-06-26T00:49:06;101203.94;;;19.39;46.36
45040;BME280;30778;53.574;7.770;2023-06-26T00:51:32;101204.47;;;19.44;46.07
45040;BME280;30778;53.574;7.770;2023-06-26T00:53:59;101196.38;;;19.45;45.84
45040;BME280;30778;53.574;7.770;2023-06-26T00:56:27;101195.78;;;19.42;46.13
45040;BME280;30778;53.574;7.770;2023-06-26T00:58:55;101192.41;;;19.40;46.28
45040;BME280;30778;53.574;7.770;2023-06-26T01:01:25;101195.53;;;19.45;46.23
45040;BME280;30778;53.574;7.770;2023-06-26T01:03:54;101186.66;;;19.46;46.08
45040;BME280;30778;53.574;7.770;2023-06-26T01:06:22;101174.13;;;19.48;45.96
45040;BME280;30778;53.574;7.770;2023-06-26T01:08:52;101178.91;;;19.43;46.00
45040;BME280;30778;53.574;7.770;2023-06-26T01:11:22;101174.34;;;19.45;45.96
45040;BME280;30778;53.574;7.770;2023-06-26T01:13:47;101170.13;;;19.42;46.13
45040;BME280;30778;53.574;7.770;2023-06-26T01:16:18;101166.09;;;19.37;46.28
45040;BME280;30778;53.574;7.770;2023-06-26T01:18:45;101162.75;;;19.35;46.42
45040;BME280;30778;53.574;7.770;2023-06-26T01:21:14;101159.56;;;19.29;46.04
45040;BME280;30778;53.574;7.770;2023-06-26T01:24:00;101156.69;;;19.33;46.29
45040;BME280;30778;53.574;7.770;2023-06-26T01:26:32;101150.44;;;19.34;45.97
45040;BME280;30778;53.574;7.770;2023-06-26T01:29:02;101150.47;;;19.21;46.53
45040;BME280;30778;53.574;7.770;2023-06-26T01:31:29;101146.13;;;19.20;46.60
45040;BME280;30778;53.574;7.770;2023-06-26T01:33:58;101143.72;;;19.17;46.55
45040;BME280;30778;53.574;7.770;2023-06-26T01:36:25;101149.22;;;19.14;46.52
45040;BME280;30778;53.574;7.770;2023-06-26T01:38:53;101140.88;;;19.07;46.60
45040;BME280;30778;53.574;7.770;2023-06-26T01:41:23;101136.53;;;19.06;46.59
45040;BME280;30778;53.574;7.770;2023-06-26T01:44:09;101130.84;;;18.99;47.14
45040;BME280;30778;53.574;7.770;2023-06-26T01:51:52;101130.44;;;18.93;47.09
45040;BME280;30778;53.574;7.770;2023-06-26T01:54:21;101122.69;;;18.89;47.55
45040;BME280;30778;53.574;7.770;2023-06-26T01:56:50;101125.13;;;18.93;47.27
45040;BME280;30778;53.574;7.770;2023-06-26T01:59:18;101120.91;;;18.90;47.32
45040;BME280;30778;53.574;7.770;2023-06-26T02:01:44;101120.91;;;18.90;47.39
45040;BME280;30778;53.574;7.770;2023-06-26T02:04:10;101112.72;;;18.80;47.38
45040;BME280;30778;53.574;7.770;2023-06-26T02:06:35;101106.69;;;18.78;47.38
45040;BME280;30778;53.574;7.770;2023-06-26T02:09:00;101110.31;;;18.77;47.48
45040;BME280;30778;53.574;7.770;2023-06-26T02:11:27;101108.59;;;18.89;47.45
45040;BME280;30778;53.574;7.770;2023-06-26T02:13:53;101108.06;;;18.84;47.42
45040;BME280;30778;53.574;7.770;2023-06-26T02:16:18;101103.09;;;18.79;47.51
45040;BME280;30778;53.574;7.770;2023-06-26T02:18:44;101096.75;;;18.82;47.20
45040;BME280;30778;53.574;7.770;2023-06-26T02:21:09;101097.06;;;18.77;47.17
45040;BME280;30778;53.574;7.770;2023-06-26T02:23:35;101093.69;;;18.75;47.41
45040;BME280;30778;53.574;7.770;2023-06-26T02:26:00;101089.56;;;18.71;47.76
45040;BME280;30778;53.574;7.770;2023-06-26T02:28:26;101088.47;;;18.74;47.56
45040;BME280;30778;53.574;7.770;2023-06-26T02:30:51;101086.38;;;18.79;47.39
45040;BME280;30778;53.574;7.770;2023-06-26T02:33:17;101088.72;;;18.71;47.46
45040;BME280;30778;53.574;7.770;2023-06-26T02:35:46;101084.03;;;18.74;47.25
45040;BME280;30778;53.574;7.770;2023-06-26T02:38:11;101084.78;;;18.76;47.53
45040;BME280;30778;53.574;7.770;2023-06-26T02:40:38;101082.59;;;18.70;47.61
45040;BME280;30778;53.574;7.770;2023-06-26T02:43:04;101073.44;;;18.74;47.54
45040;BME280;30778;53.574;7.770;2023-06-26T02:45:30;101067.94;;;18.77;47.27
45040;BME280;30778;53.574;7.770;2023-06-26T02:47:55;101066.38;;;18.75;47.52
45040;BME280;30778;53.574;7.770;2023-06-26T02:50:21;101067.72;;;18.80;46.97
45040;BME280;30778;53.574;7.770;2023-06-26T02:53:08;101066.03;;;18.79;47.25
45040;BME280;30778;53.574;7.770;2023-06-26T02:55:35;101071.09;;;18.82;47.05
45040;BME280;30778;53.574;7.770;2023-06-26T02:58:01;101061.81;;;18.77;47.28
45040;BME280;30778;53.574;7.770;2023-06-26T03:00:27;101064.88;;;18.71;47.33
45040;BME280;30778;53.574;7.770;2023-06-26T03:02:55;101057.34;;;18.77;47.22
45040;BME280;30778;53.574;7.770;2023-06-26T03:05:22;101051.63;;;18.83;47.17
45040;BME280;30778;53.574;7.770;2023-06-26T03:07:49;101054.81;;;18.88;47.11
45040;BME280;30778;53.574;7.770;2023-06-26T03:10:15;101057.13;;;18.93;46.99
45040;BME280;30778;53.574;7.770;2023-06-26T03:12:43;101057.75;;;18.97;47.13
45040;BME280;30778;53.574;7.770;2023-06-26T03:15:09;101049.56;;;19.00;46.74
45040;BME280;30778;53.574;7.770;2023-06-26T03:17:37;101054.13;;;18.98;46.98
45040;BME280;30778;53.574;7.770;2023-06-26T03:20:06;101047.25;;;18.95;47.00
45040;BME280;30778;53.574;7.770;2023-06-26T03:22:58;101043.53;;;18.98;46.62
45040;BME280;30778;53.574;7.770;2023-06-26T03:25:24;101037.09;;;18.89;46.72
45040;BME280;30778;53.574;7.770;2023-06-26T03:27:57;101042.41;;;18.89;46.78
45040;BME280;30778;53.574;7.770;2023-06-26T03:30:24;101043.38;;;18.88;47.02
45040;BME280;30778;53.574;7.770;2023-06-26T03:32:51;101042.19;;;18.92;47.03
45040;BME280;30778;53.574;7.770;2023-06-26T03:35:16;101043.53;;;18.98;46.74
45040;BME280;30778;53.574;7.770;2023-06-26T03:37:42;101041.22;;;18.93;46.69
45040;BME280;30778;53.574;7.770;2023-06-26T03:40:08;101033.19;;;18.95;46.73
45040;BME280;30778;53.574;7.770;2023-06-26T03:42:34;101031.53;;;19.05;46.64
45040;BME280;30778;53.574;7.770;2023-06-26T03:44:59;101031.31;;;19.08;46.53
45040;BME280;30778;53.574;7.770;2023-06-26T03:47:26;101022.84;;;19.03;46.54
45040;BME280;30778;53.574;7.770;2023-06-26T03:49:53;101019.38;;;19.02;46.82
45040;BME280;30778;53.574;7.770;2023-06-26T03:52:19;101020.00;;;19.06;46.27
45040;BME280;30778;53.574;7.770;2023-06-26T03:54:44;101017.53;;;19.03;46.46
45040;BME280;30778;53.574;7.770;2023-06-26T03:57:10;101024.09;;;19.10;46.31
45040;BME280;30778;53.574;7.770;2023-06-26T03:59:36;101012.47;;;19.24;46.24
45040;BME280;30778;53.574;7.770;2023-06-26T04:02:01;101020.56;;;19.34;46.20
45040;BME280;30778;53.574;7.770;2023-06-26T04:04:27;101005.16;;;19.39;46.07
45040;BME280;30778;53.574;7.770;2023-06-26T04:06:53;100998.91;;;19.40;45.84
45040;BME280;30778;53.574;7.770;2023-06-26T04:09:19;101000.22;;;19.34;46.17
45040;BME280;30778;53.574;7.770;2023-06-26T04:11:45;100993.38;;;19.43;46.17
45040;BME280;30778;53.574;7.770;2023-06-26T04:14:10;100996.03;;;19.43;46.41
45040;BME280;30778;53.574;7.770;2023-06-26T04:16:36;100999.06;;;19.49;46.01
45040;BME280;30778;53.574;7.770;2023-06-26T04:19:02;100993.97;;;19.70;45.77
45040;BME280;30778;53.574;7.770;2023-06-26T04:21:29;100995.19;;;19.89;45.39
45040;BME280;30778;53.574;7.770;2023-06-26T04:23:55;100993.25;;;20.02;45.14
45040;BME280;30778;53.574;7.770;2023-06-26T04:26:20;100995.31;;;20.21;44.91
45040;BME280;30778;53.574;7.770;2023-06-26T04:28:46;100996.66;;;20.38;44.83
45040;BME280;30778;53.574;7.770;2023-06-26T04:31:11;100993.59;;;20.54;44.62
45040;BME280;30778;53.574;7.770;2023-06-26T04:33:37;100989.38;;;20.51;43.73
45040;BME280;30778;53.574;7.770;2023-06-26T04:36:03;100997.59;;;20.60;44.01
45040;BME280;30778;53.574;7.770;2023-06-26T04:38:30;100985.75;;;20.52;44.06
45040;BME280;30778;53.574;7.770;2023-06-26T04:40:56;100999.78;;;20.43;43.99
45040;BME280;30778;53.574;7.770;2023-06-26T04:43:21;100988.44;;;20.41;44.37
45040;BME280;30778;53.574;7.770;2023-06-26T04:45:47;100992.19;;;20.27;44.56
45040;BME280;30778;53.574;7.770;2023-06-26T04:48:12;100995.91;;;20.13;44.87
45040;BME280;30778;53.574;7.770;2023-06-26T04:50:39;100994.13;;;20.25;44.78
45040;BME280;30778;53.574;7.770;2023-06-26T04:53:05;100983.84;;;20.32;44.74
45040;BME280;30778;53.574;7.770;2023-06-26T04:55:30;100985.97;;;20.61;44.59
45040;BME280;30778;53.574;7.770;2023-06-26T04:57:56;100980.59;;;20.83;43.81
45040;BME280;30778;53.574;7.770;2023-06-26T05:00:21;100978.31;;;20.90;43.21
45040;BME280;30778;53.574;7.770;2023-06-26T05:02:48;100978.19;;;20.91;43.48
45040;BME280;30778;53.574;7.770;2023-06-26T05:05:13;100985.25;;;21.13;42.70
45040;BME280;30778;53.574;7.770;2023-06-26T05:07:41;100979.25;;;21.42;42.73
45040;BME280;30778;53.574;7.770;2023-06-26T05:10:07;100971.06;;;22.37;40.41
45040;BME280;30778;53.574;7.770;2023-06-26T05:12:33;100969.34;;;23.82;37.31
45040;BME280;30778;53.574;7.770;2023-06-26T05:14:59;100964.50;;;24.97;36.01
45040;BME280;30778;53.574;7.770;2023-06-26T05:17:24;100972.56;;;25.23;34.38
45040;BME280;30778;53.574;7.770;2023-06-26T05:19:51;100967.31;;;26.26;32.89
45040;BME280;30778;53.574;7.770;2023-06-26T05:22:17;100976.00;;;25.85;33.82
45040;BME280;30778;53.574;7.770;2023-06-26T05:24:46;100970.22;;;25.98;33.09
45040;BME280;30778;53.574;7.770;2023-06-26T05:27:12;100958.97;;;26.37;32.38
45040;BME280;30778;53.574;7.770;2023-06-26T05:29:44;100956.72;;;26.59;31.76
45040;BME280;30778;53.574;7.770;2023-06-26T05:32:11;100958.94;;;26.96;31.36
45040;BME280;30778;53.574;7.770;2023-06-26T05:34:38;100970.28;;;27.56;30.83
45040;BME280;30778;53.574;7.770;2023-06-26T05:37:05;100981.53;;;25.14;34.31
45040;BME280;30778;53.574;7.770;2023-06-26T05:39:32;100976.22;;;25.66;33.70
45040;BME280;30778;53.574;7.770;2023-06-26T05:41:58;100977.66;;;25.34;34.55
45040;BME280;30778;53.574;7.770;2023-06-26T05:44:23;100981.72;;;25.91;33.79
45040;BME280;30778;53.574;7.770;2023-06-26T05:46:49;100970.84;;;25.14;34.11
45040;BME280;30778;53.574;7.770;2023-06-26T05:49:15;100970.44;;;25.79;33.62
45040;BME280;30778;53.574;7.770;2023-06-26T05:51:40;100972.22;;;25.44;33.88
45040;BME280;30778;53.574;7.770;2023-06-26T05:54:06;100975.88;;;24.81;35.22
45040;BME280;30778;53.574;7.770;2023-06-26T05:56:33;100975.00;;;24.44;35.64
45040;BME280;30778;53.574;7.770;2023-06-26T05:58:58;100976.13;;;23.87;36.99
45040;BME280;30778;53.574;7.770;2023-06-26T06:01:24;100983.50;;;23.26;38.58
45040;BME280;30778;53.574;7.770;2023-06-26T06:03:50;100982.25;;;23.40;38.77
45040;BME280;30778;53.574;7.770;2023-06-26T06:06:15;100987.16;;;25.11;35.61
45040;BME280;30778;53.574;7.770;2023-06-26T06:08:41;100989.28;;;25.43;34.31
45040;BME280;30778;53.574;7.770;2023-06-26T06:11:07;100996.41;;;24.80;35.40
45040;BME280;30778;53.574;7.770;2023-06-26T06:13:33;101010.66;;;25.61;34.28
45040;BME280;30778;53.574;7.770;2023-06-26T06:15:58;101009.91;;;27.37;31.42
45040;BME280;30778;53.574;7.770;2023-06-26T06:18:24;100995.28;;;27.40;31.05
45040;BME280;30778;53.574;7.770;2023-06-26T06:20:50;101006.00;;;26.23;32.91
45040;BME280;30778;53.574;7.770;2023-06-26T06:23:16;101000.75;;;24.63;35.80
45040;BME280;30778;53.574;7.770;2023-06-26T06:25:41;101008.44;;;24.49;36.01
45040;BME280;30778;53.574;7.770;2023-06-26T06:28:09;101010.59;;;25.09;35.89
45040;BME280;30778;53.574;7.770;2023-06-26T06:30:35;101028.66;;;24.97;35.87
45040;BME280;30778;53.574;7.770;2023-06-26T06:33:01;101028.69;;;23.57;38.54
45040;BME280;30778;53.574;7.770;2023-06-26T06:35:26;101033.56;;;23.91;38.15
45040;BME280;30778;53.574;7.770;2023-06-26T06:37:52;101039.31;;;24.79;36.65
45040;BME280;30778;53.574;7.770;2023-06-26T06:40:17;101046.44;;;24.42;37.49
45040;BME280;30778;53.574;7.770;2023-06-26T06:42:43;101050.47;;;23.23;40.10
45040;BME280;30778;53.574;7.770;2023-06-26T06:45:09;101062.78;;;22.54;42.08
45040;BME280;30778;53.574;7.770;2023-06-26T06:47:35;101064.34;;;21.74;44.45
45040;BME280;30778;53.574;7.770;2023-06-26T06:50:01;101055.63;;;22.14;43.88
45040;BME280;30778;53.574;7.770;2023-06-26T06:52:38;101055.13;;;22.30;43.30
45040;BME280;30778;53.574;7.770;2023-06-26T06:55:04;101065.88;;;21.24;45.54
45040;BME280;30778;53.574;7.770;2023-06-26T06:57:38;101064.63;;;21.71;44.34
45040;BME280;30778;53.574;7.770;2023-06-26T07:00:05;101060.41;;;21.04;45.58
45040;BME280;30778;53.574;7.770;2023-06-26T07:02:35;101073.81;;;21.03;46.48
45040;BME280;30778;53.574;7.770;2023-06-26T07:05:02;101097.78;;;21.24;45.90
45040;BME280;30778;53.574;7.770;2023-06-26T07:07:30;101082.31;;;20.51;46.36
45040;BME280;30778;53.574;7.770;2023-06-26T07:10:00;101093.97;;;20.15;47.70
45040;BME280;30778;53.574;7.770;2023-06-26T07:12:27;101102.94;;;19.79;48.60
45040;BME280;30778;53.574;7.770;2023-06-26T07:14:53;101129.94;;;19.12;50.62
45040;BME280;30778;53.574;7.770;2023-06-26T07:17:19;101163.81;;;18.44;53.12
45040;BME280;30778;53.574;7.770;2023-06-26T07:19:47;101170.84;;;18.18;54.31
45040;BME280;30778;53.574;7.770;2023-06-26T07:22:12;101158.97;;;17.43;57.04
45040;BME280;30778;53.574;7.770;2023-06-26T07:24:38;101177.97;;;17.36;57.22
45040;BME280;30778;53.574;7.770;2023-06-26T07:27:04;101201.41;;;16.99;58.10
45040;BME280;30778;53.574;7.770;2023-06-26T07:29:29;101193.88;;;17.07;58.75
45040;BME280;30778;53.574;7.770;2023-06-26T07:31:54;101177.97;;;17.50;57.79
45040;BME280;30778;53.574;7.770;2023-06-26T07:34:20;101186.38;;;17.28;57.91
45040;BME280;30778;53.574;7.770;2023-06-26T07:36:45;101179.53;;;16.97;58.22
45040;BME280;30778;53.574;7.770;2023-06-26T07:39:11;101172.19;;;17.43;57.77
45040;BME280;30778;53.574;7.770;2023-06-26T07:41:36;101176.06;;;17.38;57.51
45040;BME280;30778;53.574;7.770;2023-06-26T07:44:02;101178.53;;;17.41;57.64
45040;BME280;30778;53.574;7.770;2023-06-26T07:46:30;101174.84;;;17.71;57.75
45040;BME280;30778;53.574;7.770;2023-06-26T07:48:56;101188.16;;;17.96;56.50
45040;BME280;30778;53.574;7.770;2023-06-26T07:51:21;101195.50;;;18.05;56.04
45040;BME280;30778;53.574;7.770;2023-06-26T07:53:47;101197.34;;;18.31;54.67
45040;BME280;30778;53.574;7.770;2023-06-26T07:56:17;101202.66;;;18.56;54.12
45040;BME280;30778;53.574;7.770;2023-06-26T07:58:43;101202.44;;;18.85;52.99
45040;BME280;30778;53.574;7.770;2023-06-26T08:01:08;101195.72;;;19.55;50.57
45040;BME280;30778;53.574;7.770;2023-06-26T08:03:34;101194.19;;;20.69;47.97
45040;BME280;30778;53.574;7.770;2023-06-26T08:06:00;101199.97;;;21.53;44.68
45040;BME280;30778;53.574;7.770;2023-06-26T08:08:25;101209.00;;;21.40;45.34
45040;BME280;30778;53.574;7.770;2023-06-26T08:10:51;101209.19;;;21.27;45.06
45040;BME280;30778;53.574;7.770;2023-06-26T08:13:16;101208.53;;;21.57;44.05
45040;BME280;30778;53.574;7.770;2023-06-26T08:15:41;101210.63;;;24.38;41.03
45040;BME280;30778;53.574;7.770;2023-06-26T08:18:07;101209.63;;;25.52;35.42
45040;BME280;30778;53.574;7.770;2023-06-26T08:20:32;101220.72;;;25.75;34.31
45040;BME280;30778;53.574;7.770;2023-06-26T08:23:01;101216.41;;;24.91;36.90
45040;BME280;30778;53.574;7.770;2023-06-26T08:25:26;101214.59;;;25.19;34.61
45040;BME280;30778;53.574;7.770;2023-06-26T08:27:51;101211.31;;;25.25;34.83
45040;BME280;30778;53.574;7.770;2023-06-26T08:30:17;101220.63;;;26.46;32.75
45040;BME280;30778;53.574;7.770;2023-06-26T08:32:43;101220.88;;;26.09;33.33
45040;BME280;30778;53.574;7.770;2023-06-26T08:35:08;101234.31;;;25.81;33.37
45040;BME280;30778;53.574;7.770;2023-06-26T08:37:35;101242.03;;;25.21;34.97
45040;BME280;30778;53.574;7.770;2023-06-26T08:40:00;101237.91;;;25.54;33.71
45040;BME280;30778;53.574;7.770;2023-06-26T08:42:26;101242.41;;;24.32;35.28
45040;BME280;30778;53.574;7.770;2023-06-26T08:44:52;101242.88;;;23.88;35.91
45040;BME280;30778;53.574;7.770;2023-06-26T08:47:18;101247.75;;;21.87;38.92
45040;BME280;30778;53.574;7.770;2023-06-26T08:50:10;101257.34;;;22.53;37.89
45040;BME280;30778;53.574;7.770;2023-06-26T08:52:43;101261.25;;;24.30;35.53
45040;BME280;30778;53.574;7.770;2023-06-26T08:55:10;101268.50;;;23.60;36.05
45040;BME280;30778;53.574;7.770;2023-06-26T08:57:37;101263.31;;;22.87;36.92
45040;BME280;30778;53.574;7.770;2023-06-26T09:00:05;101262.31;;;22.36;37.72
45040;BME280;30778;53.574;7.770;2023-06-26T09:02:31;101281.25;;;21.79;38.55
45040;BME280;30778;53.574;7.770;2023-06-26T09:04:57;101279.63;;;21.98;37.25
45040;BME280;30778;53.574;7.770;2023-06-26T09:07:22;101299.16;;;23.75;34.48
45040;BME280;30778;53.574;7.770;2023-06-26T09:09:48;101283.03;;;25.39;32.71
45040;BME280;30778;53.574;7.770;2023-06-26T09:12:13;101293.19;;;25.08;31.45
45040;BME280;30778;53.574;7.770;2023-06-26T09:14:39;101291.28;;;24.81;32.44
45040;BME280;30778;53.574;7.770;2023-06-26T09:17:05;101296.44;;;23.25;33.73
45040;BME280;30778;53.574;7.770;2023-06-26T09:19:30;101305.19;;;22.96;34.72
45040;BME280;30778;53.574;7.770;2023-06-26T09:21:55;101317.53;;;21.68;37.24
45040;BME280;30778;53.574;7.770;2023-06-26T09:24:22;101319.50;;;21.21;38.10
45040;BME280;30778;53.574;7.770;2023-06-26T09:26:50;101327.88;;;22.16;37.41
45040;BME280;30778;53.574;7.770;2023-06-26T09:29:19;101330.25;;;22.52;36.82
45040;BME280;30778;53.574;7.770;2023-06-26T09:31:45;101331.59;;;22.46;37.02
45040;BME280;30778;53.574;7.770;2023-06-26T09:34:11;101343.13;;;22.68;34.73
45040;BME280;30778;53.574;7.770;2023-06-26T09:36:37;101339.94;;;23.47;34.00
45040;BME280;30778;53.574;7.770;2023-06-26T09:39:03;101350.41;;;24.58;32.36
45040;BME280;30778;53.574;7.770;2023-06-26T09:41:43;101341.13;;;24.43;32.37
45040;BME280;30778;53.574;7.770;2023-06-26T09:44:14;101344.84;;;23.41;34.44
45040;BME280;30778;53.574;7.770;2023-06-26T09:46:39;101352.69;;;23.83;34.27
45040;BME280;30778;53.574;7.770;2023-06-26T09:49:06;101354.94;;;22.22;35.78
45040;BME280;30778;53.574;7.770;2023-06-26T09:51:39;101367.47;;;21.87;35.84
45040;BME280;30778;53.574;7.770;2023-06-26T09:54:05;101369.47;;;22.17;35.89
45040;BME280;30778;53.574;7.770;2023-06-26T09:56:32;101383.19;;;21.45;36.14
45040;BME280;30778;53.574;7.770;2023-06-26T09:59:05;101385.75;;;21.47;36.83
45040;BME280;30778;53.574;7.770;2023-06-26T10:01:33;101393.50;;;21.61;36.33
45040;BME280;30778;53.574;7.770;2023-06-26T10:03:59;101391.47;;;20.96;36.98
45040;BME280;30778;53.574;7.770;2023-06-26T10:06:33;101398.00;;;21.14;37.02
45040;BME280;30778;53.574;7.770;2023-06-26T10:09:03;101391.81;;;21.60;36.96
45040;BME280;30778;53.574;7.770;2023-06-26T10:12:19;101385.47;;;22.50;35.49
45040;BME280;30778;53.574;7.770;2023-06-26T10:14:21;101393.25;;;22.74;35.15
45040;BME280;30778;53.574;7.770;2023-06-26T10:16:50;101407.75;;;21.83;35.16
45040;BME280;30778;53.574;7.770;2023-06-26T10:19:18;101406.28;;;21.33;36.22
45040;BME280;30778;53.574;7.770;2023-06-26T10:21:51;101411.06;;;20.46;36.25
45040;BME280;30778;53.574;7.770;2023-06-26T10:24:17;101419.63;;;21.09;36.20
45040;BME280;30778;53.574;7.770;2023-06-26T10:26:45;101421.38;;;22.23;34.95
45040;BME280;30778;53.574;7.770;2023-06-26T10:29:13;101417.91;;;22.55;35.05
45040;BME280;30778;53.574;7.770;2023-06-26T10:31:43;101419.22;;;22.06;33.76
45040;BME280;30778;53.574;7.770;2023-06-26T10:34:11;101415.84;;;20.89;36.14
45040;BME280;30778;53.574;7.770;2023-06-26T10:36:36;101427.41;;;20.88;35.64
45040;BME280;30778;53.574;7.770;2023-06-26T10:39:06;101427.47;;;21.11;35.19
45040;BME280;30778;53.574;7.770;2023-06-26T10:41:39;101429.88;;;21.83;35.15
45040;BME280;30778;53.574;7.770;2023-06-26T10:44:09;101437.16;;;22.58;33.69
45040;BME280;30778;53.574;7.770;2023-06-26T10:46:51;101436.38;;;22.68;33.94
45040;BME280;30778;53.574;7.770;2023-06-26T10:49:25;101444.50;;;21.55;35.60
45040;BME280;30778;53.574;7.770;2023-06-26T10:51:51;101442.94;;;21.06;37.14
45040;BME280;30778;53.574;7.770;2023-06-26T10:54:18;101441.25;;;21.63;36.25
45040;BME280;30778;53.574;7.770;2023-06-26T10:56:54;101437.47;;;22.22;35.56
45040;BME280;30778;53.574;7.770;2023-06-26T10:59:27;101446.78;;;23.24;32.95
45040;BME280;30778;53.574;7.770;2023-06-26T11:01:56;101446.19;;;22.99;33.15
45040;BME280;30778;53.574;7.770;2023-06-26T11:04:45;101434.59;;;21.80;34.75
45040;BME280;30778;53.574;7.770;2023-06-26T11:07:16;101446.22;;;21.90;34.40
45040;BME280;30778;53.574;7.770;2023-06-26T11:12:38;101453.34;;;23.20;32.54
45040;BME280;30778;53.574;7.770;2023-06-26T11:15:16;101454.53;;;24.19;31.92
45040;BME280;30778;53.574;7.770;2023-06-26T11:17:43;101459.09;;;23.88;32.12
45040;BME280;30778;53.574;7.770;2023-06-26T11:20:12;101459.72;;;23.08;32.87
45040;BME280;30778;53.574;7.770;2023-06-26T11:22:39;101461.09;;;22.15;34.01
45040;BME280;30778;53.574;7.770;2023-06-26T11:25:06;101465.91;;;22.76;34.22
45040;BME280;30778;53.574;7.770;2023-06-26T11:27:37;101472.06;;;21.54;33.75
45040;BME280;30778;53.574;7.770;2023-06-26T11:30:03;101458.75;;;22.33;32.81
45040;BME280;30778;53.574;7.770;2023-06-26T11:32:31;101473.34;;;22.93;31.81
45040;BME280;30778;53.574;7.770;2023-06-26T11:35:03;101468.28;;;22.90;31.97
45040;BME280;30778;53.574;7.770;2023-06-26T11:37:33;101465.47;;;23.76;30.46
45040;BME280;30778;53.574;7.770;2023-06-26T11:40:05;101466.06;;;24.10;30.05
45040;BME280;30778;53.574;7.770;2023-06-26T11:42:40;101468.84;;;24.69;30.40
45040;BME280;30778;53.574;7.770;2023-06-26T11:45:06;101468.50;;;24.33;29.92
45040;BME280;30778;53.574;7.770;2023-06-26T11:47:32;101472.97;;;23.30;29.37
45040;BME280;30778;53.574;7.770;2023-06-26T11:49:57;101476.09;;;23.24;29.16
45040;BME280;30778;53.574;7.770;2023-06-26T11:52:23;101475.41;;;23.74;29.31
45040;BME280;30778;53.574;7.770;2023-06-26T11:54:48;101473.63;;;22.90;29.89
45040;BME280;30778;53.574;7.770;2023-06-26T11:57:14;101484.06;;;23.35;29.50
45040;BME280;30778;53.574;7.770;2023-06-26T11:59:41;101484.53;;;22.32;30.60
45040;BME280;30778;53.574;7.770;2023-06-26T12:02:07;101487.72;;;22.81;30.07
45040;BME280;30778;53.574;7.770;2023-06-26T12:04:36;101506.09;;;22.84;30.96
45040;BME280;30778;53.574;7.770;2023-06-26T12:07:03;101487.03;;;22.56;30.00
45040;BME280;30778;53.574;7.770;2023-06-26T12:09:30;101497.59;;;22.90;30.43
45040;BME280;30778;53.574;7.770;2023-06-26T12:11:59;101514.44;;;22.47;30.75
45040;BME280;30778;53.574;7.770;2023-06-26T12:14:25;101505.41;;;22.59;31.18
45040;BME280;30778;53.574;7.770;2023-06-26T12:16:54;101513.06;;;22.53;29.67
45040;BME280;30778;53.574;7.770;2023-06-26T12:19:26;101511.22;;;23.08;29.20
45040;BME280;30778;53.574;7.770;2023-06-26T12:21:52;101514.03;;;23.91;27.33
45040;BME280;30778;53.574;7.770;2023-06-26T12:24:22;101495.91;;;24.35;26.66
45040;BME280;30778;53.574;7.770;2023-06-26T12:26:54;101503.22;;;23.71;27.02
45040;BME280;30778;53.574;7.770;2023-06-26T12:29:30;101515.69;;;24.32;26.83
45040;BME280;30778;53.574;7.770;2023-06-26T12:31:56;101519.59;;;24.18;27.17
45040;BME280;30778;53.574;7.770;2023-06-26T12:34:31;101516.56;;;24.33;28.44
45040;BME280;30778;53.574;7.770;2023-06-26T12:37:01;101521.41;;;22.71;29.50
45040;BME280;30778;53.574;7.770;2023-06-26T12:39:27;101521.34;;;22.38;28.93
45040;BME280;30778;53.574;7.770;2023-06-26T12:41:58;101517.72;;;22.28;29.87
45040;BME280;30778;53.574;7.770;2023-06-26T12:44:29;101525.88;;;23.03;29.16
45040;BME280;30778;53.574;7.770;2023-06-26T12:46:59;101517.56;;;22.41;29.29
45040;BME280;30778;53.574;7.770;2023-06-26T12:49:38;101535.72;;;21.44;30.75
45040;BME280;30778;53.574;7.770;2023-06-26T12:52:12;101541.53;;;21.85;31.15
45040;BME280;30778;53.574;7.770;2023-06-26T12:54:40;101535.00;;;22.11;30.27
45040;BME280;30778;53.574;7.770;2023-06-26T12:57:06;101527.34;;;22.07;30.84
45040;BME280;30778;53.574;7.770;2023-06-26T12:59:32;101520.75;;;22.12;31.33